Time;durP1;ratioP1;P1;durP2;ratioP2;P2;SDS_P1;SDS_P2;PMS_P1;PMS_P2;Temp;Humidity;BMP_temperature;BMP_pressure;BME280_temperature;BME280_humidity;BME280_pressure;Samples;Min_cycle;Max_cycle;Signal;HPM_P1;HPM_P2
2023/09/18 00:01:08;;;;;;;9.23;3.60;;;;;;;18.05;66.27;92763.72;2061099;69;20742;-78
2023/09/18 00:03:35;;;;;;;7.80;4.40;;;;;;;18.08;66.67;92762.41;2060951;69;20145;-77
2023/09/18 00:06:02;;;;;;;7.15;3.40;;;;;;;18.01;67.02;92758.63;2061021;69;20229;-77
2023/09/18 00:08:28;;;;;;;7.35;4.00;;;;;;;17.90;66.95;92773.88;2060183;69;20267;-77
2023/09/18 00:10:55;;;;;;;6.47;3.90;;;;;;;17.73;66.99;92754.75;2057280;69;20141;-78
2023/09/18 00:13:21;;;;;;;8.48;3.78;;;;;;;17.70;67.12;92767.47;2060875;69;20205;-77
2023/09/18 00:15:48;;;;;;;5.70;3.72;;;;;;;17.76;66.98;92776.97;2061388;69;20577;-78
2023/09/18 00:18:15;;;;;;;6.75;3.80;;;;;;;17.68;67.62;92779.50;2061097;69;20664;-78
2023/09/18 00:20:41;;;;;;;5.70;3.55;;;;;;;17.71;67.41;92786.72;2060984;69;20157;-77
2023/09/18 00:23:08;;;;;;;6.50;3.67;;;;;;;17.73;66.83;92777.53;2057704;69;20177;-78
2023/09/18 00:25:34;;;;;;;4.70;3.50;;;;;;;17.79;66.95;92769.25;2060803;69;20145;-78
2023/09/18 00:28:00;;;;;;;4.95;3.90;;;;;;;17.81;66.64;92768.56;2057460;69;20245;-77
2023/09/18 00:30:26;;;;;;;4.80;3.58;;;;;;;17.73;66.68;92763.28;2061366;69;20289;-78
2023/09/18 00:32:51;;;;;;;5.68;3.60;;;;;;;17.71;66.81;92766.81;2057526;69;20149;-77
2023/09/18 00:35:17;;;;;;;7.63;3.90;;;;;;;17.78;66.39;92759.97;2057557;69;20157;-78
2023/09/18 00:37:46;;;;;;;8.45;3.92;;;;;;;17.69;66.21;92749.66;2057817;69;20717;-78
2023/09/18 00:40:12;;;;;;;8.82;3.58;;;;;;;17.68;66.91;92748.19;2061133;69;20181;-78
2023/09/18 00:42:38;;;;;;;7.45;3.45;;;;;;;17.60;67.51;92738.66;2061249;69;20164;-77
2023/09/18 00:45:04;;;;;;;7.28;3.60;;;;;;;17.62;66.85;92730.91;2061053;69;20141;-80
2023/09/18 00:47:33;;;;;;;6.13;3.35;;;;;;;17.52;67.42;92722.72;2057285;69;20141;-77
2023/09/18 00:49:59;;;;;;;5.53;3.40;;;;;;;17.63;67.24;92723.81;2057452;69;20173;-78
2023/09/18 00:52:26;;;;;;;7.70;3.97;;;;;;;17.56;67.17;92701.50;2060928;69;20192;-77
2023/09/18 00:54:53;;;;;;;6.65;3.60;;;;;;;17.61;67.44;92689.59;2057522;69;20149;-76
2023/09/18 00:57:23;;;;;;;6.82;3.33;;;;;;;17.66;67.25;92679.81;2054551;69;20260;-76
2023/09/18 00:59:49;;;;;;;7.53;3.47;;;;;;;17.84;66.42;92673.31;2061090;69;20173;-76
2023/09/18 01:02:15;;;;;;;8.07;4.00;;;;;;;17.16;68.69;92688.00;2057374;69;20233;-76
2023/09/18 01:04:43;;;;;;;5.50;3.63;;;;;;;17.25;67.97;92678.38;2061050;69;20207;-76
2023/09/18 01:07:10;;;;;;;6.10;3.90;;;;;;;17.52;67.20;92677.19;2060935;69;20161;-77
2023/09/18 01:09:36;;;;;;;5.25;3.58;;;;;;;17.63;66.24;92675.41;2060808;69;20165;-78
2023/09/18 01:12:17;;;;;;;5.70;3.40;;;;;;;17.60;66.30;92679.59;2061566;69;20181;-76
2023/09/18 01:15:11;;;;;;;8.75;3.83;;;;;;;16.90;68.51;92684.19;2057738;69;20210;-77
2023/09/18 01:17:40;;;;;;;7.97;3.60;;;;;;;17.20;67.68;92713.03;2058911;69;20605;-76
2023/09/18 01:20:09;;;;;;;5.97;4.07;;;;;;;17.23;67.82;92714.56;2058038;69;20291;-76
2023/09/18 01:22:35;;;;;;;8.00;3.80;;;;;;;17.30;67.09;92721.19;2061696;69;20148;-76
2023/09/18 01:25:01;;;;;;;7.65;3.72;;;;;;;17.05;68.27;92706.09;2058063;69;20142;-75
2023/09/18 01:27:26;;;;;;;6.35;3.95;;;;;;;17.25;66.51;92701.13;2061812;69;20244;-76
2023/09/18 01:29:53;;;;;;;14.73;3.88;;;;;;;17.11;67.45;92705.59;2058323;69;20156;-76
2023/09/18 01:32:19;;;;;;;7.57;3.85;;;;;;;17.17;67.70;92694.41;2058439;69;20149;-76
2023/09/18 01:34:48;;;;;;;5.57;3.38;;;;;;;17.18;67.70;92688.09;2061859;69;20145;-76
2023/09/18 01:37:16;;;;;;;10.70;3.83;;;;;;;17.13;68.00;92691.44;2058248;69;20570;-76
2023/09/18 01:39:46;;;;;;;6.85;3.90;;;;;;;16.61;69.95;92685.94;2061664;69;20165;-77
2023/09/18 01:42:11;;;;;;;7.13;4.15;;;;;;;16.90;69.29;92687.75;2058139;69;20246;-75
2023/09/18 01:44:40;;;;;;;7.35;3.72;;;;;;;16.92;68.61;92670.06;2058168;69;20137;-77
2023/09/18 01:47:12;;;;;;;8.55;4.05;;;;;;;17.00;68.75;92670.38;2061823;69;20162;-77
2023/09/18 01:49:40;;;;;;;7.82;3.80;;;;;;;17.01;68.57;92669.69;2061792;69;20149;-77
2023/09/18 01:52:08;;;;;;;6.07;3.70;;;;;;;17.04;67.86;92670.50;2058190;69;20180;-77
2023/09/18 01:54:36;;;;;;;6.32;3.47;;;;;;;17.17;68.19;92685.88;2061736;69;20260;-77
2023/09/18 01:57:04;;;;;;;5.63;3.45;;;;;;;17.11;68.21;92686.41;2061744;69;20615;-77
2023/09/18 01:59:29;;;;;;;9.30;3.88;;;;;;;17.00;68.13;92681.75;2058142;69;20629;-78
2023/09/18 02:01:56;;;;;;;7.03;3.80;;;;;;;16.93;67.90;92680.78;2058116;69;20203;-76
2023/09/18 02:04:23;;;;;;;7.85;4.10;;;;;;;17.01;67.17;92677.50;2061960;69;20685;-77
2023/09/18 02:06:50;;;;;;;10.02;3.83;;;;;;;16.83;68.66;92662.63;2058156;69;20141;-77
2023/09/18 02:09:16;;;;;;;7.68;4.10;;;;;;;16.74;69.22;92647.38;2058029;69;20161;-79
2023/09/18 02:11:44;;;;;;;7.90;3.80;;;;;;;16.93;68.37;92654.47;2061859;69;20149;-77
2023/09/18 02:14:10;;;;;;;7.95;3.80;;;;;;;17.02;67.93;92650.53;2058089;69;20323;-77
2023/09/18 02:16:43;;;;;;;9.57;4.05;;;;;;;16.95;68.13;92635.38;2061747;69;20145;-79
2023/09/18 02:19:09;;;;;;;8.40;3.90;;;;;;;16.88;68.51;92621.56;2055325;69;20153;-77
2023/09/18 02:21:36;;;;;;;8.15;3.92;;;;;;;16.95;68.73;92623.25;2057805;69;20554;-79
2023/09/18 02:24:03;;;;;;;6.60;4.05;;;;;;;16.77;68.65;92632.59;2061670;69;20140;-78
2023/09/18 02:26:29;;;;;;;5.15;3.78;;;;;;;16.67;69.15;92625.75;2055327;69;20459;-79
2023/09/18 02:29:01;;;;;;;8.02;4.50;;;;;;;16.64;69.24;92627.81;2058063;69;20151;-80
2023/09/18 02:31:27;;;;;;;6.47;3.90;;;;;;;16.74;68.31;92616.84;2061729;69;20673;-77
2023/09/18 02:33:53;;;;;;;7.63;3.88;;;;;;;16.79;68.66;92609.19;2061718;69;20215;-78
2023/09/18 02:36:19;;;;;;;9.05;4.03;;;;;;;16.72;68.79;92599.72;2061695;69;20255;-78
2023/09/18 02:38:48;;;;;;;7.50;4.53;;;;;;;16.62;68.90;92613.50;2061486;69;20169;-79
2023/09/18 02:41:13;;;;;;;9.32;4.03;;;;;;;16.51;69.35;92606.72;2061719;69;20506;-78
2023/09/18 02:43:39;;;;;;;6.15;3.90;;;;;;;16.57;69.27;92620.41;2061670;69;20173;-79
2023/09/18 02:46:06;;;;;;;7.18;4.22;;;;;;;16.57;68.82;92620.41;2061898;69;20240;-79
2023/09/18 02:48:31;;;;;;;9.43;4.25;;;;;;;16.43;70.19;92617.78;2058221;69;20689;-77
2023/09/18 02:50:59;;;;;;;8.40;4.10;;;;;;;16.51;70.06;92620.19;2058180;69;20133;-77
2023/09/18 02:53:25;;;;;;;10.75;4.40;;;;;;;16.57;69.95;92608.34;2055524;69;20149;-77
2023/09/18 02:55:53;;;;;;;7.68;3.80;;;;;;;16.57;69.42;92619.69;2057978;69;20149;-77
2023/09/18 02:58:19;;;;;;;9.15;3.97;;;;;;;16.40;70.09;92624.78;2058107;69;20224;-77
2023/09/18 03:00:47;;;;;;;7.63;4.28;;;;;;;16.54;69.79;92618.91;2061658;69;20152;-77
2023/09/18 03:03:14;;;;;;;7.90;4.10;;;;;;;16.36;69.99;92607.59;2057972;69;20534;-78
2023/09/18 03:05:41;;;;;;;9.55;4.00;;;;;;;16.37;70.28;92616.84;2057996;69;20183;-79
2023/09/18 03:08:07;;;;;;;8.35;4.03;;;;;;;16.43;69.78;92611.38;2058019;69;20175;-78
2023/09/18 03:10:34;;;;;;;8.63;4.10;;;;;;;16.41;69.60;92599.94;2055207;69;20147;-78
2023/09/18 03:13:01;;;;;;;9.30;4.22;;;;;;;16.45;69.65;92617.88;2061647;69;20176;-78
2023/09/18 03:15:29;;;;;;;8.65;4.03;;;;;;;16.44;69.57;92605.03;2058078;69;20149;-78
2023/09/18 03:17:55;;;;;;;7.93;4.00;;;;;;;16.36;69.58;92613.25;2061655;69;20150;-78
2023/09/18 03:20:25;;;;;;;7.22;4.18;;;;;;;16.19;70.82;92616.84;2058045;69;20159;-77
2023/09/18 03:22:51;;;;;;;7.82;4.00;;;;;;;16.27;70.82;92617.19;2058004;69;20148;-77
2023/09/18 03:25:17;;;;;;;7.63;3.97;;;;;;;16.26;70.97;92610.00;2058040;69;20236;-77
2023/09/18 03:27:43;;;;;;;9.98;4.15;;;;;;;16.43;68.97;92595.06;2058051;69;20609;-77
2023/09/18 03:30:12;;;;;;;13.02;4.20;;;;;;;16.47;69.32;92575.31;2058092;69;20155;-77
2023/09/18 03:32:38;;;;;;;8.73;4.25;;;;;;;16.38;69.50;92578.50;2057971;69;20148;-77
2023/09/18 03:35:04;;;;;;;9.25;3.92;;;;;;;16.36;70.29;92573.50;2058154;69;20141;-77
2023/09/18 03:37:30;;;;;;;10.25;4.03;;;;;;;16.32;70.40;92559.13;2057823;69;20154;-77
2023/09/18 03:39:56;;;;;;;10.48;4.28;;;;;;;16.39;69.84;92568.59;2061275;69;20152;-80
2023/09/18 03:42:22;;;;;;;8.52;4.18;;;;;;;16.25;70.49;92572.38;2061414;69;20536;-77
2023/09/18 03:44:48;;;;;;;8.98;4.60;;;;;;;16.35;69.76;92576.97;2061445;69;20532;-77
2023/09/18 03:47:13;;;;;;;8.95;4.25;;;;;;;16.37;70.43;92577.06;2055032;69;20624;-77
2023/09/18 03:49:39;;;;;;;7.25;4.45;;;;;;;16.37;70.27;92577.06;2057932;69;20513;-78
2023/09/18 03:52:05;;;;;;;7.13;3.53;;;;;;;16.32;70.02;92575.44;2058008;69;20170;-78
2023/09/18 03:54:31;;;;;;;8.73;4.40;;;;;;;16.27;70.55;92577.41;2055124;69;20149;-75
2023/09/18 03:56:57;;;;;;;7.00;4.22;;;;;;;16.39;69.83;92577.13;2057902;69;20144;-78
2023/09/18 03:59:22;;;;;;;9.98;4.47;;;;;;;16.35;70.15;92574.13;2061681;69;20145;-77
2023/09/18 04:01:49;;;;;;;7.15;4.25;;;;;;;16.42;70.45;92568.03;2057886;69;20145;-77
2023/09/18 04:04:15;;;;;;;9.18;3.92;;;;;;;16.49;69.53;92572.56;2061605;69;20142;-77
2023/09/18 04:06:43;;;;;;;10.82;4.18;;;;;;;15.92;71.69;92578.19;2061506;69;20227;-77
2023/09/18 04:09:09;;;;;;;10.75;4.32;;;;;;;16.17;70.40;92566.41;2057780;69;20133;-79
2023/09/18 04:11:35;;;;;;;10.57;4.70;;;;;;;16.28;70.86;92567.50;2057805;69;20215;-77
2023/09/18 04:14:01;;;;;;;8.38;4.28;;;;;;;16.33;70.73;92560.59;2061455;69;20584;-78
2023/09/18 04:16:36;;;;;;;9.50;4.10;;;;;;;16.42;70.18;92553.09;2057783;69;20593;-76
2023/09/18 04:19:03;;;;;;;13.88;5.10;;;;;;;16.29;70.45;92539.81;2061596;69;20153;-78
2023/09/18 04:21:31;;;;;;;8.63;4.10;;;;;;;16.39;69.91;92543.75;2061364;69;20235;-79
2023/09/18 04:23:58;;;;;;;8.35;4.55;;;;;;;16.38;70.32;92541.59;2061264;69;20148;-77
2023/09/18 04:26:29;;;;;;;8.05;4.53;;;;;;;16.41;69.94;92543.84;2057810;69;20687;-77
2023/09/18 04:28:57;;;;;;;9.90;4.38;;;;;;;16.42;70.53;92536.06;2057873;69;20158;-78
2023/09/18 04:31:22;;;;;;;9.20;4.00;;;;;;;16.46;70.58;92533.38;2054965;69;20137;-76
2023/09/18 04:33:48;;;;;;;10.65;4.05;;;;;;;16.48;70.03;92522.78;2057734;69;20227;-77
2023/09/18 04:36:14;;;;;;;7.82;4.38;;;;;;;16.35;70.44;92517.31;2061543;69;20141;-78
2023/09/18 04:38:39;;;;;;;10.48;4.40;;;;;;;16.48;70.29;92522.06;2057004;69;20221;-77
2023/09/18 04:41:07;;;;;;;12.32;4.15;;;;;;;16.55;69.76;92520.19;2057322;69;20610;-78
2023/09/18 04:43:38;;;;;;;12.02;4.47;;;;;;;16.40;69.98;92524.59;2057141;69;20516;-80
2023/09/18 04:46:05;;;;;;;15.57;5.23;;;;;;;16.30;70.43;92519.28;2058268;69;20658;-78
2023/09/18 04:48:32;;;;;;;13.00;4.88;;;;;;;16.33;70.51;92512.28;2057712;69;20509;-78
2023/09/18 04:50:59;;;;;;;12.43;4.60;;;;;;;16.41;68.98;92509.75;2057802;69;20157;-78
2023/09/18 04:53:29;;;;;;;10.45;4.40;;;;;;;16.45;69.88;92512.75;2057806;69;20157;-77
2023/09/18 04:55:55;;;;;;;10.80;4.43;;;;;;;16.39;70.44;92523.16;2057672;69;20669;-77
2023/09/18 04:58:21;;;;;;;11.75;4.38;;;;;;;16.39;70.33;92506.09;2057802;69;20237;-78
2023/09/18 05:00:57;;;;;;;11.82;4.82;;;;;;;16.36;70.12;92507.44;2057898;69;20145;-77
2023/09/18 05:03:23;;;;;;;11.70;4.57;;;;;;;16.37;69.84;92512.44;2058054;69;20142;-77
2023/09/18 05:05:49;;;;;;;11.65;4.85;;;;;;;16.37;70.45;92514.56;2058731;69;20179;-78
2023/09/18 05:08:15;;;;;;;10.48;5.13;;;;;;;16.40;70.29;92501.88;2064806;69;20138;-77
2023/09/18 05:10:41;;;;;;;13.32;4.82;;;;;;;16.42;70.63;92494.16;2065651;69;20134;-77
2023/09/18 05:13:07;;;;;;;13.90;5.30;;;;;;;16.47;70.17;92492.19;2065185;69;20141;-77
2023/09/18 05:15:33;;;;;;;11.05;4.57;;;;;;;16.50;70.37;92480.25;2065897;69;20237;-76
2023/09/18 05:18:00;;;;;;;13.35;4.65;;;;;;;16.54;70.66;92488.19;2066223;69;20146;-77
2023/09/18 05:20:28;;;;;;;16.73;5.20;;;;;;;16.62;70.36;92497.00;2066335;69;20141;-77
2023/09/18 05:22:55;;;;;;;12.35;4.88;;;;;;;16.53;70.40;92498.09;2060305;69;20138;-78
2023/09/18 05:25:23;;;;;;;15.02;5.25;;;;;;;16.45;70.76;92504.22;2059472;69;20609;-78
2023/09/18 05:27:55;;;;;;;12.02;5.45;;;;;;;16.55;69.93;92498.16;2059062;69;20514;-78
2023/09/18 05:30:28;;;;;;;14.13;5.23;;;;;;;16.60;70.50;92493.38;2061854;69;20177;-77
2023/09/18 05:32:54;;;;;;;8.45;4.93;;;;;;;16.67;70.68;92501.44;2059770;69;20598;-77
2023/09/18 05:35:21;;;;;;;9.20;4.60;;;;;;;16.77;70.14;92492.56;2058947;69;20165;-81
2023/09/18 05:37:48;;;;;;;11.38;4.63;;;;;;;16.79;70.05;92495.47;2058814;69;20270;-77
2023/09/18 05:40:14;;;;;;;17.52;5.72;;;;;;;16.61;70.33;92501.22;2061542;69;20149;-76
2023/09/18 05:42:43;;;;;;;15.00;5.22;;;;;;;16.75;70.24;92492.50;2058328;69;20184;-76
2023/09/18 05:45:10;;;;;;;18.05;5.03;;;;;;;16.85;70.24;92492.09;2061908;69;20153;-79
2023/09/18 05:47:35;;;;;;;8.57;4.82;;;;;;;16.81;70.47;92489.13;2062030;69;20146;-79
2023/09/18 05:50:06;;;;;;;15.05;4.55;;;;;;;16.91;69.43;92490.22;2062023;69;20524;-79
2023/09/18 05:52:33;;;;;;;15.20;4.78;;;;;;;16.88;70.50;92502.91;2062145;69;20172;-79
2023/09/18 05:55:00;;;;;;;10.48;4.63;;;;;;;16.96;70.55;92508.88;2061743;69;20156;-79
2023/09/18 05:57:27;;;;;;;19.88;5.90;;;;;;;16.70;70.85;92513.59;2061803;69;20533;-78
2023/09/18 05:59:56;;;;;;;14.93;5.05;;;;;;;16.85;69.85;92515.56;2061752;69;20264;-78
2023/09/18 06:02:23;;;;;;;14.07;5.53;;;;;;;16.98;70.08;92516.72;2061882;69;20241;-80
2023/09/18 06:04:49;;;;;;;15.80;4.97;;;;;;;16.93;69.50;92501.66;2061842;69;20138;-81
2023/09/18 06:07:14;;;;;;;13.75;5.53;;;;;;;17.12;69.03;92516.47;2061825;69;20236;-79
2023/09/18 06:09:40;;;;;;;12.82;5.13;;;;;;;17.11;70.31;92512.19;2061718;69;20171;-77
2023/09/18 06:12:07;;;;;;;14.95;5.05;;;;;;;17.24;70.39;92511.94;2061943;69;20233;-77
2023/09/18 06:14:37;;;;;;;15.27;5.38;;;;;;;17.02;69.58;92516.88;2061876;69;20149;-78
2023/09/18 06:17:04;;;;;;;13.65;5.45;;;;;;;16.73;71.24;92518.00;2058427;69;20145;-78
2023/09/18 06:19:32;;;;;;;17.02;5.70;;;;;;;16.96;71.01;92513.81;2061826;69;20153;-78
2023/09/18 06:21:59;;;;;;;14.05;5.22;;;;;;;17.09;69.80;92518.53;2061772;69;20133;-78
2023/09/18 06:24:26;;;;;;;13.73;5.63;;;;;;;17.13;70.77;92507.28;2061703;69;20141;-79
2023/09/18 06:26:53;;;;;;;16.33;5.40;;;;;;;17.12;70.64;92496.56;2058218;69;20597;-79
2023/09/18 06:29:20;;;;;;;20.20;5.25;;;;;;;17.25;69.02;92502.00;2061716;69;20157;-79
2023/09/18 06:31:46;;;;;;;12.77;5.05;;;;;;;17.31;69.90;92489.38;2061691;69;20528;-78
2023/09/18 06:34:13;;;;;;;16.65;5.22;;;;;;;17.41;70.31;92484.75;2058045;69;20130;-80
2023/09/18 06:36:38;;;;;;;16.25;5.20;;;;;;;17.58;69.97;92483.13;2061874;69;20167;-79
2023/09/18 06:39:04;;;;;;;16.45;5.30;;;;;;;17.78;68.56;92475.25;2061587;69;20152;-79
2023/09/18 06:41:29;;;;;;;18.75;5.07;;;;;;;18.02;68.78;92480.94;2061748;69;20256;-79
2023/09/18 06:43:56;;;;;;;13.70;4.70;;;;;;;18.21;69.33;92479.38;2061879;69;20141;-79
2023/09/18 06:46:22;;;;;;;15.23;5.20;;;;;;;18.40;69.14;92483.47;2055401;69;20188;-79
2023/09/18 06:48:50;;;;;;;13.30;4.82;;;;;;;18.57;67.64;92470.41;2061763;69;20142;-79
2023/09/18 06:51:17;;;;;;;16.35;4.70;;;;;;;18.69;67.67;92462.22;2061739;69;20200;-80
2023/09/18 06:53:44;;;;;;;19.88;4.95;;;;;;;18.78;68.03;92469.59;2061539;69;20289;-80
2023/09/18 06:56:09;;;;;;;19.17;4.82;;;;;;;19.02;64.31;92466.63;2061517;69;20137;-80
2023/09/18 06:58:35;;;;;;;16.88;4.90;;;;;;;18.52;64.97;92469.56;2061814;69;20153;-79
2023/09/18 07:01:03;;;;;;;13.88;5.63;;;;;;;18.80;68.70;92451.78;2061747;69;20177;-79
2023/09/18 07:03:28;;;;;;;13.55;6.20;;;;;;;18.91;68.01;92464.91;2061819;69;20153;-79
2023/09/18 07:05:56;;;;;;;15.27;5.50;;;;;;;18.99;66.96;92458.69;2061685;69;20621;-79
2023/09/18 07:08:23;;;;;;;15.05;5.20;;;;;;;19.21;65.32;92462.13;2057853;69;20155;-79
2023/09/18 07:10:52;;;;;;;15.63;5.43;;;;;;;19.27;65.27;92465.13;2061667;69;20134;-78
2023/09/18 07:13:18;;;;;;;17.02;5.97;;;;;;;19.37;65.50;92469.63;2061867;69;20589;-78
2023/09/18 07:15:48;;;;;;;15.23;5.97;;;;;;;19.53;65.87;92467.91;2055345;69;20644;-79
2023/09/18 07:18:14;;;;;;;16.55;5.80;;;;;;;19.67;65.92;92452.53;2061778;69;20156;-78
2023/09/18 07:20:41;;;;;;;22.55;6.13;;;;;;;19.65;65.20;92449.63;2058088;69;20138;-78
2023/09/18 07:23:07;;;;;;;17.02;5.75;;;;;;;19.80;65.00;92448.56;2057980;69;20153;-78
2023/09/18 07:25:33;;;;;;;18.17;5.15;;;;;;;19.86;65.41;92448.69;2061572;69;20142;-78
2023/09/18 07:27:58;;;;;;;17.70;5.13;;;;;;;20.06;64.36;92449.13;2058113;69;20172;-79
2023/09/18 07:30:26;;;;;;;14.13;5.28;;;;;;;20.23;64.00;92441.63;2061707;69;20233;-80
2023/09/18 07:32:57;;;;;;;11.85;4.88;;;;;;;20.29;62.47;92438.88;2058032;69;20141;-79
2023/09/18 07:35:27;;;;;;;15.65;5.40;;;;;;;20.09;64.35;92440.59;2061677;69;20174;-79
2023/09/18 07:37:52;;;;;;;15.00;5.38;;;;;;;19.97;64.44;92435.34;2061695;69;20144;-81
2023/09/18 07:40:18;;;;;;;18.67;5.40;;;;;;;20.19;63.30;92440.81;2061467;69;20145;-78
2023/09/18 07:42:44;;;;;;;14.63;5.30;;;;;;;20.50;61.12;92431.47;2061644;69;20247;-78
2023/09/18 07:45:10;;;;;;;20.30;5.68;;;;;;;20.51;62.42;92432.19;2061653;69;20612;-79
2023/09/18 07:47:36;;;;;;;23.05;5.63;;;;;;;20.76;62.20;92427.69;2061433;69;20145;-79
2023/09/18 07:50:02;;;;;;;14.68;5.10;;;;;;;20.67;62.01;92437.53;2057952;69;20525;-79
2023/09/18 07:52:29;;;;;;;17.45;5.50;;;;;;;20.49;62.76;92435.03;2061113;69;20132;-80
2023/09/18 07:54:58;;;;;;;12.38;4.95;;;;;;;20.74;60.29;92436.22;2061509;69;20581;-78
2023/09/18 07:57:31;;;;;;;14.23;5.65;;;;;;;20.86;61.63;92444.31;2061723;69;20145;-80
2023/09/18 07:59:58;;;;;;;18.83;5.65;;;;;;;21.04;61.86;92453.22;2061713;69;20157;-79
2023/09/18 08:02:25;;;;;;;12.10;4.70;;;;;;;21.21;60.85;92457.09;2057987;69;20208;-79
2023/09/18 08:04:55;;;;;;;17.27;5.97;;;;;;;21.27;61.37;92452.19;2061576;69;20304;-79
2023/09/18 08:07:22;;;;;;;17.30;5.03;;;;;;;21.46;60.53;92449.69;2061615;69;20157;-80
2023/09/18 08:09:49;;;;;;;19.35;5.30;;;;;;;21.02;60.71;92456.75;2052423;69;20211;-78
2023/09/18 08:12:20;;;;;;;20.42;5.55;;;;;;;20.74;60.76;92447.66;2058126;69;20145;-80
2023/09/18 08:14:46;;;;;;;15.63;5.47;;;;;;;21.08;61.05;92444.00;2061790;69;20651;-81
2023/09/18 08:17:12;;;;;;;17.67;5.10;;;;;;;21.44;60.10;92429.59;2061649;69;20185;-78
2023/09/18 08:19:40;;;;;;;25.23;5.90;;;;;;;21.86;60.11;92441.00;2061921;69;20240;-78
2023/09/18 08:22:06;;;;;;;17.40;5.13;;;;;;;21.84;60.29;92438.09;2062119;69;20276;-79
2023/09/18 08:24:34;;;;;;;17.05;5.13;;;;;;;21.77;60.94;92437.28;2058485;69;20145;-82
2023/09/18 08:26:59;;;;;;;16.15;5.22;;;;;;;21.97;60.74;92450.44;2062048;69;20587;-79
2023/09/18 08:29:25;;;;;;;20.08;5.45;;;;;;;22.36;61.42;92442.41;2062120;69;20149;-77
2023/09/18 08:31:51;;;;;;;16.33;5.35;;;;;;;22.38;58.51;92433.84;2059795;69;20517;-77
2023/09/18 08:34:16;;;;;;;17.10;4.78;;;;;;;22.55;57.34;92435.50;2058797;69;20615;-76
2023/09/18 08:36:42;;;;;;;20.13;4.95;;;;;;;22.88;55.66;92433.72;2055205;69;20160;-78
2023/09/18 08:39:08;;;;;;;15.27;4.53;;;;;;;22.90;57.56;92427.28;2058368;69;20224;-80
2023/09/18 08:41:41;;;;;;;19.77;5.55;;;;;;;23.38;57.17;92420.59;2055117;69;20157;-81
2023/09/18 08:44:10;;;;;;;17.38;5.18;;;;;;;23.76;54.28;92420.91;2055203;69;20153;-79
2023/09/18 08:46:37;;;;;;;16.52;4.88;;;;;;;23.10;53.60;92416.03;2058688;69;20153;-78
2023/09/18 08:49:05;;;;;;;12.55;4.47;;;;;;;23.23;54.07;92411.09;2055096;69;20245;-79
2023/09/18 08:51:32;;;;;;;13.60;4.60;;;;;;;23.31;53.36;92411.91;2055054;69;20540;-79
2023/09/18 08:54:15;;;;;;;12.85;5.00;;;;;;;23.20;52.85;92404.63;2055461;69;20148;-79
2023/09/18 08:56:41;;;;;;;15.80;4.55;;;;;;;23.19;53.29;92400.31;2058835;69;20316;-80
2023/09/18 08:59:07;;;;;;;16.45;4.93;;;;;;;22.96;53.91;92413.00;2058821;69;20683;-80
2023/09/18 09:01:35;;;;;;;14.73;4.93;;;;;;;22.74;55.05;92413.47;2055127;69;20536;-81
2023/09/18 09:04:01;;;;;;;11.05;4.78;;;;;;;22.96;54.39;92410.16;2054995;69;20141;-77
2023/09/18 09:06:27;;;;;;;13.07;4.85;;;;;;;22.89;53.82;92409.34;2058676;69;20148;-77
2023/09/18 09:08:59;;;;;;;14.20;4.93;;;;;;;22.53;54.98;92407.50;2058495;69;20600;-77
2023/09/18 09:11:24;;;;;;;15.93;4.78;;;;;;;22.51;55.99;92401.75;2054986;69;20628;-78
2023/09/18 09:14:27;;;;;;;9.93;4.63;;;;;;;22.85;57.65;92403.53;2058593;69;20264;-76
2023/09/18 09:16:55;;;;;;;13.00;4.63;;;;;;;22.73;59.08;92404.13;2038610;70;20175;-77
2023/09/18 09:19:38;;;;;;;13.32;4.88;;;;;;;22.74;59.90;92407.72;2035928;70;20285;-78
2023/09/18 09:22:11;;;;;;;13.80;4.72;;;;;;;22.81;57.97;92412.81;2041398;70;20127;-79
2023/09/18 09:24:42;;;;;;;18.80;5.13;;;;;;;22.36;58.18;92425.94;2041292;70;20135;-78
2023/09/18 09:27:09;;;;;;;17.80;5.60;;;;;;;22.22;58.54;92415.00;2038669;70;20603;-79
2023/09/18 09:29:35;;;;;;;16.33;5.30;;;;;;;22.37;60.03;92413.03;2041405;70;20148;-77
2023/09/18 09:32:19;;;;;;;13.80;4.70;;;;;;;22.57;57.26;92421.88;2042505;70;20254;-77
2023/09/18 09:34:46;;;;;;;17.45;5.63;;;;;;;22.43;57.61;92421.00;2044814;70;20214;-81
2023/09/18 09:37:13;;;;;;;12.70;5.05;;;;;;;22.47;59.01;92424.63;2044629;70;20147;-80
2023/09/18 09:39:50;;;;;;;15.73;5.43;;;;;;;22.41;60.10;92427.44;2044367;70;20190;-78
2023/09/18 09:42:24;;;;;;;12.80;4.47;;;;;;;22.64;59.96;92414.09;2044609;70;20151;-81
2023/09/18 09:45:05;;;;;;;16.33;5.22;;;;;;;22.42;60.58;92405.94;2044653;70;20190;-79
2023/09/18 09:47:38;;;;;;;18.98;5.75;;;;;;;22.02;60.62;92401.09;2043948;70;20163;-79
2023/09/18 09:50:13;;;;;;;13.48;5.50;;;;;;;22.25;59.58;92405.00;2041866;70;20155;-79
2023/09/18 09:52:44;;;;;;;21.42;5.93;;;;;;;22.67;57.86;92386.13;2049548;69;20149;-80
2023/09/18 09:55:30;;;;;;;15.75;5.20;;;;;;;22.82;59.18;92390.59;2061733;69;20172;-81
2023/09/18 09:57:59;;;;;;;18.08;5.55;;;;;;;22.37;58.70;92375.03;2061897;69;20176;-79
2023/09/18 10:00:40;;;;;;;14.68;6.07;;;;;;;22.15;59.84;92386.94;2058276;69;20161;-79
2023/09/18 10:03:09;;;;;;;19.23;6.13;;;;;;;22.47;59.09;92387.34;2058267;69;20153;-79
2023/09/18 10:05:38;;;;;;;13.43;5.25;;;;;;;22.86;57.89;92387.75;2058408;69;20146;-79
2023/09/18 10:08:19;;;;;;;15.00;5.43;;;;;;;22.36;59.71;92380.06;2061781;69;20142;-79
2023/09/18 10:10:51;;;;;;;17.40;5.68;;;;;;;22.60;59.28;92390.38;2058558;69;20180;-79
2023/09/18 10:13:59;;;;;;;18.10;5.18;;;;;;;22.53;58.97;92387.41;2058219;69;20156;-79
2023/09/18 10:16:27;;;;;;;16.88;5.32;;;;;;;22.65;59.38;92383.97;2056962;69;20141;-79
2023/09/18 10:19:11;;;;;;;13.77;5.10;;;;;;;22.82;58.77;92384.88;2061804;69;20597;-79
2023/09/18 10:22:00;;;;;;;13.88;5.28;;;;;;;22.89;59.37;92382.78;2061976;69;20150;-79
2023/09/18 10:24:31;;;;;;;17.48;6.65;;;;;;;22.62;59.54;92373.88;2061737;69;20135;-79
2023/09/18 10:27:04;;;;;;;96.95;25.42;;;;;;;22.73;60.71;92375.44;2061807;69;20231;-79
2023/09/18 10:29:34;;;;;;;58.13;16.60;;;;;;;22.50;59.66;92370.91;2058232;69;20148;-79
2023/09/18 10:32:04;;;;;;;30.13;8.75;;;;;;;22.73;59.96;92374.72;2061963;69;20142;-79
2023/09/18 10:34:33;;;;;;;29.35;7.63;;;;;;;23.02;58.74;92378.63;2061689;69;20199;-80
2023/09/18 10:37:11;;;;;;;17.17;6.25;;;;;;;22.98;59.25;92372.84;2061784;69;20149;-80
2023/09/18 10:39:44;;;;;;;19.27;6.20;;;;;;;23.15;58.49;92370.84;2057244;69;20708;-79
2023/09/18 10:42:10;;;;;;;19.80;7.60;;;;;;;23.27;58.37;92365.19;2057877;69;20141;-79
2023/09/18 10:44:39;;;;;;;21.15;7.68;;;;;;;23.01;58.89;92371.44;2058103;69;20534;-80
2023/09/18 10:47:08;;;;;;;19.90;6.10;;;;;;;22.40;60.29;92373.63;2058296;69;20176;-79
2023/09/18 10:49:35;;;;;;;17.67;5.85;;;;;;;22.49;60.69;92378.75;2057567;69;20146;-79
2023/09/18 10:52:03;;;;;;;41.58;12.75;;;;;;;22.64;60.75;92376.06;2058090;69;20225;-79
2023/09/18 10:54:31;;;;;;;44.10;14.25;;;;;;;22.48;61.78;92376.59;2057538;69;20689;-79
2023/09/18 10:56:57;;;;;;;18.25;7.28;;;;;;;22.61;62.48;92381.03;2058101;69;20138;-79
2023/09/18 10:59:23;;;;;;;15.25;5.80;;;;;;;22.46;62.75;92380.16;2058084;69;20154;-79
2023/09/18 11:01:50;;;;;;;16.38;5.68;;;;;;;22.43;64.03;92366.50;2058018;69;20582;-79
2023/09/18 11:04:19;;;;;;;27.05;9.80;;;;;;;22.67;61.36;92375.38;2058027;69;20142;-79
2023/09/18 11:06:56;;;;;;;18.67;6.45;;;;;;;22.58;60.75;92383.16;2058055;69;20594;-79
2023/09/18 11:09:24;;;;;;;13.80;5.43;;;;;;;22.34;64.02;92382.88;2057402;69;20169;-80
2023/09/18 11:12:03;;;;;;;16.90;6.10;;;;;;;22.52;64.30;92376.66;2057505;69;20154;-79
2023/09/18 11:14:58;;;;;;;14.63;5.93;;;;;;;22.52;64.29;92380.22;2058039;69;20161;-81
2023/09/18 11:17:40;;;;;;;18.65;6.10;;;;;;;22.56;64.75;92386.03;2058016;69;20142;-80
2023/09/18 11:20:20;;;;;;;17.27;5.87;;;;;;;22.41;65.98;92395.16;2057378;69;20614;-78
2023/09/18 11:22:57;;;;;;;14.90;5.70;;;;;;;22.35;65.99;92397.94;2057990;69;20258;-80
2023/09/18 11:25:37;;;;;;;88.82;26.95;;;;;;;22.24;65.45;92394.25;2057472;69;20167;-81
2023/09/18 11:28:07;;;;;;;31.17;7.93;;;;;;;22.27;64.35;92392.84;2058037;69;20490;-79
2023/09/18 11:30:35;;;;;;;80.80;21.70;;;;;;;22.19;65.53;92387.00;2057624;69;20146;-83
2023/09/18 11:33:05;;;;;;;87.13;25.35;;;;;;;22.06;65.68;92392.56;2057279;69;20263;-80
2023/09/18 11:35:33;;;;;;;132.80;37.67;;;;;;;22.02;66.75;92397.50;2058026;69;20153;-82